createdAt,value
2022-09-07T00:00:39.219Z,992.63
2022-09-07T00:01:39.210Z,992.71
2022-09-07T00:02:39.242Z,992.73
2022-09-07T00:03:40.203Z,992.66
2022-09-07T00:04:39.279Z,992.77
2022-09-07T00:05:39.227Z,992.73
2022-09-07T00:06:39.189Z,992.70
2022-09-07T00:07:39.171Z,992.75
2022-09-07T00:08:39.173Z,992.75
2022-09-07T00:09:39.194Z,992.80
2022-09-07T00:10:39.141Z,992.81
2022-09-07T00:11:39.139Z,992.82
2022-09-07T00:12:39.132Z,992.77
2022-09-07T00:13:39.121Z,992.77
2022-09-07T00:14:39.107Z,992.61
2022-09-07T00:15:39.133Z,992.79
2022-09-07T00:16:39.156Z,992.72
2022-09-07T00:17:39.119Z,992.82
2022-09-07T00:18:42.483Z,992.82
2022-09-07T00:19:41.069Z,992.84
2022-09-07T00:20:39.098Z,992.91
2022-09-07T00:21:39.067Z,992.88
2022-09-07T00:22:39.042Z,992.94
2022-09-07T00:23:40.041Z,992.91
2022-09-07T00:24:39.033Z,993.01
2022-09-07T00:25:39.063Z,993.00
2022-09-07T00:26:39.017Z,993.05
2022-09-07T00:27:39.017Z,992.96
2022-09-07T00:28:39.006Z,992.98
2022-09-07T00:29:38.991Z,993.06
2022-09-07T00:30:39.013Z,993.08
2022-09-07T00:31:39.060Z,993.05
2022-09-07T00:32:38.979Z,993.07
2022-09-07T00:33:38.961Z,993.02
2022-09-07T00:34:38.953Z,993.05
2022-09-07T00:35:38.986Z,993.00
2022-09-07T00:36:38.936Z,992.99
2022-09-07T00:37:38.974Z,992.99
2022-09-07T00:38:38.929Z,992.98
2022-09-07T00:39:38.970Z,992.93
2022-09-07T00:40:38.945Z,992.92
2022-09-07T00:41:38.900Z,992.98
2022-09-07T00:42:38.904Z,993.04
2022-09-07T00:43:38.905Z,993.02
2022-09-07T00:44:38.882Z,993.05
2022-09-07T00:45:38.901Z,993.04
2022-09-07T00:46:38.923Z,993.00
2022-09-07T00:47:38.855Z,993.02
2022-09-07T00:48:38.851Z,992.98
2022-09-07T00:49:38.842Z,993.01
2022-09-07T00:50:38.869Z,992.98
2022-09-07T00:51:38.831Z,993.03
2022-09-07T00:52:38.847Z,992.99
2022-09-07T00:53:38.825Z,993.02
2022-09-07T00:54:38.804Z,993.05
2022-09-07T00:55:38.829Z,993.07
2022-09-07T00:56:38.810Z,993.05
2022-09-07T00:57:38.780Z,993.05
2022-09-07T00:58:38.777Z,993.09
2022-09-07T00:59:38.773Z,993.05
2022-09-07T01:00:38.790Z,993.06
2022-09-07T01:01:38.858Z,993.01
2022-09-07T01:02:38.853Z,993.04
2022-09-07T01:03:38.729Z,993.01
2022-09-07T01:04:38.724Z,992.97
2022-09-07T01:05:38.745Z,992.98
2022-09-07T01:06:38.707Z,992.93
2022-09-07T01:07:38.700Z,992.92
2022-09-07T01:08:38.697Z,992.87
2022-09-07T01:09:38.688Z,992.98
2022-09-07T01:10:38.701Z,992.94
2022-09-07T01:11:38.665Z,992.92
2022-09-07T01:12:38.658Z,992.82
2022-09-07T01:13:38.653Z,992.86
2022-09-07T01:14:38.675Z,992.87
2022-09-07T01:15:38.694Z,992.86
2022-09-07T01:16:38.637Z,992.84
2022-09-07T01:17:38.624Z,992.82
2022-09-07T01:18:38.617Z,992.81
2022-09-07T01:19:38.608Z,992.88
2022-09-07T01:20:38.645Z,992.88
2022-09-07T01:21:38.589Z,992.90
2022-09-07T01:22:38.587Z,992.87
2022-09-07T01:23:38.582Z,992.84
2022-09-07T01:24:38.595Z,992.88
2022-09-07T01:25:38.565Z,992.84
2022-09-07T01:26:38.581Z,992.84
2022-09-07T01:27:38.547Z,992.80
2022-09-07T01:28:38.540Z,992.81
2022-09-07T01:29:38.534Z,992.84
2022-09-07T01:30:38.520Z,992.82
2022-09-07T01:31:38.547Z,992.85
2022-09-07T01:32:38.553Z,992.87
2022-09-07T01:33:38.500Z,992.91
2022-09-07T01:34:38.501Z,992.89
2022-09-07T01:35:38.472Z,992.84
2022-09-07T01:36:39.501Z,992.90
2022-09-07T01:37:38.470Z,992.84
2022-09-07T01:38:38.467Z,992.83
2022-09-07T01:39:38.506Z,992.86
2022-09-07T01:40:38.452Z,992.83
2022-09-07T01:41:38.466Z,992.91
2022-09-07T01:42:39.435Z,992.86
2022-09-07T01:43:38.434Z,992.88
2022-09-07T01:44:38.438Z,992.83
2022-09-07T01:45:38.427Z,992.90
2022-09-07T01:46:38.454Z,992.86
2022-09-07T01:47:38.399Z,992.86
2022-09-07T01:48:38.393Z,992.86
2022-09-07T01:49:38.388Z,992.78
2022-09-07T01:50:38.386Z,992.76
2022-09-07T01:51:38.408Z,992.76
2022-09-07T01:52:38.364Z,992.73
2022-09-07T01:53:38.363Z,992.66
2022-09-07T01:54:38.348Z,992.70
2022-09-07T01:55:38.334Z,992.69
2022-09-07T01:56:38.361Z,992.64
2022-09-07T01:57:38.329Z,992.65
2022-09-07T01:58:38.312Z,992.64
2022-09-07T01:59:38.305Z,992.68
2022-09-07T02:00:38.296Z,992.63
2022-09-07T02:01:38.344Z,992.62
2022-09-07T02:02:39.377Z,992.58
2022-09-07T02:03:38.274Z,992.63
2022-09-07T02:04:38.265Z,992.62
2022-09-07T02:05:38.257Z,992.63
2022-09-07T02:06:38.275Z,992.62
2022-09-07T02:07:38.253Z,992.69
2022-09-07T02:08:38.237Z,992.64
2022-09-07T02:09:38.234Z,992.63
2022-09-07T02:10:38.219Z,992.58
2022-09-07T02:11:38.245Z,992.65
2022-09-07T02:12:38.199Z,992.64
2022-09-07T02:13:38.196Z,992.62
2022-09-07T02:14:38.185Z,992.56
2022-09-07T02:15:38.248Z,992.59
2022-09-07T02:16:38.212Z,992.55
2022-09-07T02:17:38.163Z,992.51
2022-09-07T02:18:38.151Z,992.47
2022-09-07T02:19:38.153Z,992.49
2022-09-07T02:20:38.135Z,992.46
2022-09-07T02:21:38.125Z,992.44
2022-09-07T02:22:38.147Z,992.47
2022-09-07T02:23:38.123Z,992.45
2022-09-07T02:24:38.098Z,992.38
2022-09-07T02:25:38.093Z,992.44
2022-09-07T02:26:38.096Z,992.42
2022-09-07T02:27:38.102Z,992.39
2022-09-07T02:28:38.068Z,992.42
2022-09-07T02:29:38.066Z,992.37
2022-09-07T02:30:38.190Z,992.41
2022-09-07T02:31:38.048Z,992.43
2022-09-07T02:32:38.067Z,992.46
2022-09-07T02:33:38.051Z,992.44
2022-09-07T02:34:38.021Z,992.40
2022-09-07T02:35:38.011Z,992.45
2022-09-07T02:36:38.010Z,992.42
2022-09-07T02:37:38.045Z,992.49
2022-09-07T02:38:37.993Z,992.49
2022-09-07T02:39:38.011Z,992.53
2022-09-07T02:40:37.975Z,992.47
2022-09-07T02:41:37.966Z,992.53
2022-09-07T02:42:37.988Z,992.53
2022-09-07T02:43:37.955Z,992.59
2022-09-07T02:44:37.943Z,992.63
2022-09-07T02:45:37.932Z,992.60
2022-09-07T02:46:38.088Z,992.62
2022-09-07T02:47:37.924Z,992.57
2022-09-07T02:48:37.911Z,992.56
2022-09-07T02:49:38.236Z,992.49
2022-09-07T02:50:37.903Z,992.56
2022-09-07T02:51:37.901Z,992.57
2022-09-07T02:52:37.906Z,992.57
2022-09-07T02:53:37.872Z,992.57
2022-09-07T02:54:37.871Z,992.63
2022-09-07T02:55:37.856Z,992.59
2022-09-07T02:56:37.851Z,992.64
2022-09-07T02:57:37.871Z,992.67
2022-09-07T02:58:37.834Z,992.74
2022-09-07T02:59:37.831Z,993.01
2022-09-07T03:00:37.849Z,993.39
2022-09-07T03:01:37.910Z,993.52
2022-09-07T03:02:37.907Z,993.44
2022-09-07T03:03:37.811Z,992.99
2022-09-07T03:04:37.811Z,992.97
2022-09-07T03:05:37.780Z,992.99
2022-09-07T03:06:37.777Z,993.03
2022-09-07T03:07:42.173Z,993.13
2022-09-07T03:08:39.777Z,993.20
2022-09-07T03:09:37.749Z,993.18
2022-09-07T03:10:37.753Z,993.19
2022-09-07T03:11:37.745Z,993.23
2022-09-07T03:12:37.764Z,993.19
2022-09-07T03:13:37.728Z,993.21
2022-09-07T03:14:37.726Z,993.14
2022-09-07T03:15:37.739Z,993.18
2022-09-07T03:16:37.697Z,993.19
2022-09-07T03:17:37.716Z,993.07
2022-09-07T03:18:37.710Z,992.99
2022-09-07T03:19:37.673Z,993.02
2022-09-07T03:20:37.670Z,992.99
2022-09-07T03:21:37.672Z,992.97
2022-09-07T03:22:37.679Z,992.95
2022-09-07T03:23:37.646Z,992.98
2022-09-07T03:24:37.637Z,992.90
2022-09-07T03:25:37.629Z,992.89
2022-09-07T03:26:37.618Z,992.85
2022-09-07T03:27:37.654Z,992.80
2022-09-07T03:28:37.606Z,992.73
2022-09-07T03:29:41.413Z,992.75
2022-09-07T03:30:38.649Z,992.70
2022-09-07T03:31:37.592Z,992.68
2022-09-07T03:32:37.621Z,992.74
2022-09-07T03:33:37.573Z,992.73
2022-09-07T03:34:37.568Z,992.66
2022-09-07T03:35:37.564Z,992.74
2022-09-07T03:36:37.559Z,992.76
2022-09-07T03:37:37.572Z,992.70
2022-09-07T03:38:37.534Z,992.73
2022-09-07T03:39:37.580Z,992.68
2022-09-07T03:40:37.524Z,992.62
2022-09-07T03:41:37.513Z,992.61
2022-09-07T03:42:37.545Z,992.51
2022-09-07T03:43:37.498Z,992.55
2022-09-07T03:44:37.490Z,992.54
2022-09-07T03:45:37.534Z,992.52
2022-09-07T03:46:37.483Z,992.54
2022-09-07T03:47:37.527Z,992.51
2022-09-07T03:48:37.460Z,992.53
2022-09-07T03:49:37.455Z,992.58
2022-09-07T03:50:37.445Z,992.54
2022-09-07T03:51:37.442Z,992.59
2022-09-07T03:52:37.455Z,992.53
2022-09-07T03:53:37.424Z,992.60
2022-09-07T03:54:39.648Z,992.61
2022-09-07T03:55:38.421Z,992.51
2022-09-07T03:56:37.395Z,992.50
2022-09-07T03:57:37.423Z,992.46
2022-09-07T03:58:37.388Z,992.45
2022-09-07T03:59:37.377Z,992.55
2022-09-07T04:00:37.368Z,992.53
2022-09-07T04:01:37.399Z,992.56
2022-09-07T04:02:37.464Z,992.65
2022-09-07T04:03:37.343Z,992.63
2022-09-07T04:04:37.341Z,992.65
2022-09-07T04:05:37.328Z,992.63
2022-09-07T04:06:37.327Z,992.59
2022-09-07T04:07:37.347Z,992.56
2022-09-07T04:08:37.328Z,992.53
2022-09-07T04:09:37.301Z,992.55
2022-09-07T04:10:37.290Z,992.50
2022-09-07T04:11:37.284Z,992.41
2022-09-07T04:12:37.314Z,992.42
2022-09-07T04:13:37.276Z,992.38
2022-09-07T04:14:37.271Z,992.45
2022-09-07T04:15:37.258Z,992.42
2022-09-07T04:16:37.323Z,992.47
2022-09-07T04:17:37.267Z,992.48
2022-09-07T04:18:37.235Z,992.47
2022-09-07T04:19:37.221Z,992.49
2022-09-07T04:20:37.241Z,992.40
2022-09-07T04:21:37.229Z,992.47
2022-09-07T04:22:37.228Z,992.41
2022-09-07T04:23:37.197Z,992.36
2022-09-07T04:24:37.182Z,992.43
2022-09-07T04:25:37.177Z,992.41
2022-09-07T04:26:37.170Z,992.41
2022-09-07T04:27:37.195Z,992.43
2022-09-07T04:28:37.144Z,992.41
2022-09-07T04:29:37.153Z,992.46
2022-09-07T04:30:37.173Z,992.44
2022-09-07T04:31:37.131Z,992.47
2022-09-07T04:32:37.145Z,992.48
2022-09-07T04:33:37.120Z,992.44
2022-09-07T04:34:37.108Z,992.46
2022-09-07T04:35:37.103Z,992.50
2022-09-07T04:36:37.093Z,992.46
2022-09-07T04:37:37.118Z,992.45
2022-09-07T04:38:37.079Z,992.49
2022-09-07T04:39:37.106Z,992.47
2022-09-07T04:40:37.068Z,992.52
2022-09-07T04:41:37.065Z,992.48
2022-09-07T04:42:37.076Z,992.44
2022-09-07T04:43:37.039Z,992.51
2022-09-07T04:44:37.032Z,992.52
2022-09-07T04:45:37.089Z,992.54
2022-09-07T04:46:37.018Z,992.57
2022-09-07T04:47:37.037Z,992.53
2022-09-07T04:48:37.102Z,992.65
2022-09-07T04:49:36.992Z,992.60
2022-09-07T04:50:36.981Z,992.60
2022-09-07T04:51:36.975Z,992.78
2022-09-07T04:52:36.993Z,992.77
2022-09-07T04:53:36.959Z,992.92
2022-09-07T04:54:36.966Z,992.91
2022-09-07T04:55:36.995Z,993.03
2022-09-07T04:56:36.944Z,993.12
2022-09-07T04:57:36.963Z,993.11
2022-09-07T04:58:36.924Z,993.22
2022-09-07T04:59:36.917Z,993.19
2022-09-07T05:00:36.909Z,993.15
2022-09-07T05:01:36.927Z,993.03
2022-09-07T05:02:37.046Z,993.04
2022-09-07T05:03:36.885Z,993.03
2022-09-07T05:04:36.877Z,993.00
2022-09-07T05:05:36.877Z,993.00
2022-09-07T05:06:36.866Z,993.01
2022-09-07T05:07:36.879Z,992.99
2022-09-07T05:08:36.849Z,993.08
2022-09-07T05:09:36.853Z,993.10
2022-09-07T05:10:36.833Z,993.04
2022-09-07T05:11:36.823Z,992.99
2022-09-07T05:12:36.843Z,992.96
2022-09-07T05:13:36.813Z,993.00
2022-09-07T05:14:36.803Z,992.95
2022-09-07T05:15:36.793Z,992.96
2022-09-07T05:16:36.871Z,992.93
2022-09-07T05:17:36.794Z,992.89
2022-09-07T05:18:36.765Z,992.85
2022-09-07T05:19:36.761Z,992.77
2022-09-07T05:20:36.749Z,992.73
2022-09-07T05:21:36.746Z,992.77
2022-09-07T05:22:36.771Z,992.69
2022-09-07T05:23:36.729Z,992.67
2022-09-07T05:24:36.717Z,992.61
2022-09-07T05:25:36.714Z,992.67
2022-09-07T05:26:36.706Z,992.65
2022-09-07T05:27:36.723Z,992.58
2022-09-07T05:28:36.690Z,992.51
2022-09-07T05:31:38.666Z,992.49
2022-09-07T05:32:36.690Z,992.39
2022-09-07T05:34:38.643Z,992.34
2022-09-07T05:35:36.634Z,992.21
2022-09-07T05:36:36.635Z,992.26
2022-09-07T05:37:36.646Z,992.22
2022-09-07T05:38:36.615Z,992.23
2022-09-07T05:39:36.685Z,992.18
2022-09-07T05:40:40.499Z,992.18
2022-09-07T05:41:37.592Z,992.11
2022-09-07T05:42:36.632Z,992.08
2022-09-07T05:43:37.100Z,992.03
2022-09-07T05:44:44.354Z,992.08
2022-09-07T05:45:38.604Z,992.04
2022-09-07T05:46:36.554Z,992.12
2022-09-07T05:47:36.566Z,992.08
2022-09-07T05:48:36.534Z,992.09
2022-09-07T05:49:36.534Z,992.10
2022-09-07T05:50:36.545Z,992.10
2022-09-07T05:51:36.512Z,992.17
2022-09-07T05:52:36.529Z,992.10
2022-09-07T05:53:36.494Z,992.19
2022-09-07T05:54:36.498Z,992.23
2022-09-07T05:55:36.479Z,992.23
2022-09-07T05:56:36.547Z,992.24
2022-09-07T05:57:36.489Z,992.27
2022-09-07T05:58:36.455Z,992.29
2022-09-07T05:59:36.444Z,992.24
2022-09-07T06:00:36.449Z,992.30
2022-09-07T06:01:36.434Z,992.30
2022-09-07T06:02:39.668Z,992.31
2022-09-07T06:03:37.424Z,992.32
2022-09-07T06:04:36.418Z,992.29
2022-09-07T06:05:36.407Z,992.30
2022-09-07T06:06:36.398Z,992.35
2022-09-07T06:07:36.415Z,992.30
2022-09-07T06:08:36.384Z,992.24
2022-09-07T06:10:44.891Z,992.27
2022-09-07T06:11:38.357Z,992.27
2022-09-07T06:12:36.375Z,992.22
2022-09-07T06:13:36.348Z,992.15
2022-09-07T06:14:36.343Z,992.14
2022-09-07T06:15:36.332Z,992.13
2022-09-07T06:16:36.378Z,992.17
2022-09-07T06:17:36.341Z,992.17
2022-09-07T06:18:36.311Z,992.14
2022-09-07T06:19:36.297Z,992.21
2022-09-07T06:20:36.292Z,992.24
2022-09-07T06:21:36.283Z,992.08
2022-09-07T06:22:36.298Z,992.05
2022-09-07T06:23:36.266Z,992.07
2022-09-07T06:24:36.270Z,992.17
2022-09-07T06:25:36.254Z,992.14
2022-09-07T06:26:36.244Z,992.19
2022-09-07T06:27:36.263Z,992.24
2022-09-07T06:28:36.227Z,992.16
2022-09-07T06:29:36.222Z,992.23
2022-09-07T06:30:36.218Z,992.18
2022-09-07T06:33:37.217Z,992.17
2022-09-07T06:34:36.182Z,992.23
2022-09-07T06:35:36.174Z,992.29
2022-09-07T06:36:36.167Z,992.24
2022-09-07T06:37:36.184Z,992.28
2022-09-07T06:38:36.149Z,992.26
2022-09-07T06:39:36.217Z,992.25
2022-09-07T06:40:36.131Z,992.28
2022-09-07T06:42:38.150Z,992.33
2022-09-07T06:43:36.118Z,992.24
2022-09-07T06:44:36.109Z,992.25
2022-09-07T06:45:36.133Z,992.25
2022-09-07T06:47:38.115Z,992.28
2022-09-07T06:48:36.103Z,992.24
2022-09-07T06:49:36.071Z,992.19
2022-09-07T06:50:36.091Z,992.28
2022-09-07T06:51:36.089Z,992.35
2022-09-07T06:53:39.569Z,992.34
2022-09-07T06:55:38.023Z,992.40
2022-09-07T06:56:36.010Z,992.43
2022-09-07T06:57:36.018Z,992.35
2022-09-07T06:58:39.138Z,992.40
2022-09-07T06:59:36.993Z,992.31
2022-09-07T07:00:36.045Z,992.33
2022-09-07T07:01:35.979Z,992.31
2022-09-07T07:02:35.973Z,992.34
2022-09-07T07:03:36.049Z,992.40
2022-09-07T07:04:40.575Z,992.40
2022-09-07T07:05:37.944Z,992.40
2022-09-07T07:06:35.945Z,992.38
2022-09-07T07:07:35.943Z,992.35
2022-09-07T07:08:35.950Z,992.41
2022-09-07T07:09:35.917Z,992.46
2022-09-07T07:10:35.907Z,992.50
2022-09-07T07:11:35.903Z,992.47
2022-09-07T07:14:06.609Z,992.47
2022-09-07T07:15:06.623Z,992.44
2022-09-07T07:16:06.651Z,992.46
2022-09-07T07:17:06.612Z,992.47
2022-09-07T07:18:20.331Z,992.48
2022-09-07T07:19:09.727Z,992.48
2022-09-07T07:20:08.734Z,992.47
2022-09-07T07:21:07.760Z,992.52
2022-09-07T07:22:42.621Z,992.52
2022-09-07T07:23:09.731Z,992.56
2022-09-07T07:24:08.390Z,992.56
2022-09-07T07:25:08.691Z,992.49
2022-09-07T07:26:07.685Z,992.60
2022-09-07T07:27:07.679Z,992.57
2022-09-07T07:29:09.661Z,992.63
2022-09-07T07:30:07.683Z,992.66
2022-09-07T07:31:11.340Z,992.60
2022-09-07T07:32:09.639Z,992.68
2022-09-07T07:33:07.719Z,992.62
2022-09-07T07:34:07.699Z,992.69
2022-09-07T07:35:07.615Z,992.67
2022-09-07T07:36:07.610Z,992.67
2022-09-07T07:37:07.599Z,992.64
2022-09-07T07:40:16.996Z,992.68
2022-09-07T07:42:09.564Z,992.75
2022-09-07T07:43:07.767Z,992.65
2022-09-07T07:44:08.547Z,992.71
2022-09-07T07:46:09.624Z,992.71
2022-09-07T07:47:07.527Z,992.80
2022-09-07T07:48:07.526Z,992.78
2022-09-07T07:49:07.537Z,992.81
2022-09-07T07:51:12.133Z,992.79
2022-09-07T07:54:09.501Z,992.80
2022-09-07T07:56:09.479Z,992.74
2022-09-07T07:57:07.650Z,992.69
2022-09-07T07:58:07.452Z,992.67
2022-09-07T07:59:07.461Z,992.65
2022-09-07T08:00:07.428Z,992.70
2022-09-07T08:01:07.470Z,992.73
2022-09-07T08:02:07.504Z,992.70
2022-09-07T08:03:07.406Z,992.73
2022-09-07T08:04:07.426Z,992.68
2022-09-07T08:05:07.390Z,992.68
2022-09-07T08:06:07.383Z,992.75
2022-09-07T08:07:10.611Z,992.78
2022-09-07T08:08:08.365Z,992.78
2022-09-07T08:09:07.381Z,992.76
2022-09-07T08:10:07.364Z,992.75
2022-09-07T08:11:07.345Z,992.75
2022-09-07T08:12:07.333Z,992.79
2022-09-07T08:13:07.329Z,992.77
2022-09-07T08:14:07.348Z,992.67
2022-09-07T08:15:07.318Z,992.67
2022-09-07T08:16:07.334Z,992.78
2022-09-07T08:17:07.293Z,992.76
2022-09-07T08:18:07.285Z,992.76
2022-09-07T08:19:07.302Z,992.77
2022-09-07T08:20:07.291Z,992.76
2022-09-07T08:21:07.262Z,992.76
2022-09-07T08:22:07.262Z,992.72
2022-09-07T08:23:07.252Z,992.77
2022-09-07T08:24:07.266Z,992.73
2022-09-07T08:25:07.244Z,992.77
2022-09-07T08:26:07.242Z,992.77
2022-09-07T08:27:07.222Z,992.79
2022-09-07T08:28:07.238Z,992.78
2022-09-07T08:29:07.230Z,992.80
2022-09-07T08:30:07.192Z,992.76
2022-09-07T08:31:07.234Z,992.87
2022-09-07T08:32:07.185Z,992.84
2022-09-07T08:33:07.174Z,992.77
2022-09-07T08:34:07.193Z,992.84
2022-09-07T08:35:07.178Z,992.79
2022-09-07T08:36:07.153Z,992.84
2022-09-07T08:37:07.156Z,992.83
2022-09-07T08:38:07.143Z,992.80
2022-09-07T08:39:07.156Z,992.79
2022-09-07T08:40:07.262Z,992.74
2022-09-07T08:41:07.118Z,992.81
2022-09-07T08:42:07.111Z,992.77
2022-09-07T08:43:07.097Z,992.84
2022-09-07T08:44:07.111Z,992.83
2022-09-07T08:45:07.068Z,992.78
2022-09-07T08:46:08.104Z,992.80
2022-09-07T08:47:07.064Z,992.78
2022-09-07T08:48:07.055Z,992.79
2022-09-07T08:49:07.078Z,992.84
2022-09-07T08:50:07.378Z,992.85
2022-09-07T08:51:07.041Z,992.77
2022-09-07T08:52:07.028Z,992.85
2022-09-07T08:53:07.021Z,992.84
2022-09-07T08:54:07.038Z,992.87
2022-09-07T08:55:07.010Z,992.90
2022-09-07T08:56:06.997Z,992.81
2022-09-07T08:57:22.399Z,992.89
2022-09-07T08:58:18.025Z,992.92
2022-09-07T08:59:08.011Z,992.91
2022-09-07T09:00:06.965Z,992.95
2022-09-07T09:04:17.265Z,992.79
2022-09-07T09:05:17.581Z,992.80
2022-09-07T09:06:09.011Z,992.80
2022-09-07T09:07:07.037Z,992.86
2022-09-07T09:08:06.908Z,992.85
2022-09-07T09:09:06.922Z,992.83
2022-09-07T09:10:06.894Z,992.80
2022-09-07T09:11:06.884Z,992.86
2022-09-07T09:12:06.903Z,992.82
2022-09-07T09:13:06.870Z,992.81
2022-09-07T09:14:06.894Z,992.77
2022-09-07T09:15:06.866Z,992.82
2022-09-07T09:16:06.913Z,992.79
2022-09-07T09:17:06.847Z,992.84
2022-09-07T09:18:08.161Z,992.80
2022-09-07T09:19:06.854Z,992.82
2022-09-07T09:20:06.824Z,992.87
2022-09-07T09:21:06.815Z,992.80
2022-09-07T09:22:06.806Z,992.81
2022-09-07T09:23:06.798Z,992.88
2022-09-07T09:24:06.823Z,992.85
2022-09-07T09:25:07.786Z,992.78
2022-09-07T09:26:06.777Z,992.74
2022-09-07T09:27:06.773Z,992.78
2022-09-07T09:28:06.765Z,992.79
2022-09-07T09:29:06.756Z,992.78
2022-09-07T09:30:06.780Z,992.76
2022-09-07T09:31:06.757Z,992.77
2022-09-07T09:32:06.734Z,992.86
2022-09-07T09:33:06.731Z,992.92
2022-09-07T09:34:06.723Z,992.83
2022-09-07T09:35:06.740Z,992.87
2022-09-07T09:36:06.702Z,992.81
2022-09-07T09:37:06.693Z,992.84
2022-09-07T09:38:06.689Z,992.81
2022-09-07T09:39:06.680Z,992.85
2022-09-07T09:40:06.771Z,992.80
2022-09-07T09:41:06.663Z,992.82
2022-09-07T09:42:06.652Z,992.82
2022-09-07T09:43:06.653Z,992.79
2022-09-07T09:44:06.650Z,992.80
2022-09-07T09:45:06.660Z,992.82
2022-09-07T09:46:13.900Z,992.79
2022-09-07T09:48:08.616Z,992.78
2022-09-07T09:49:06.607Z,992.84
2022-09-07T09:50:06.952Z,992.81
2022-09-07T09:53:08.580Z,992.72
2022-09-07T09:54:06.624Z,992.80
2022-09-07T09:55:32.645Z,992.71
2022-09-07T09:56:08.568Z,992.64
2022-09-07T09:57:06.546Z,992.69
2022-09-07T10:00:12.102Z,992.72
2022-09-07T10:01:25.414Z,992.72
2022-09-07T10:04:13.157Z,992.68
2022-09-07T10:05:08.513Z,992.72
2022-09-07T10:06:06.477Z,992.78
2022-09-07T10:07:06.472Z,992.74
2022-09-07T10:08:06.467Z,992.69
2022-09-07T10:09:06.460Z,992.79
2022-09-07T10:10:06.470Z,992.64
2022-09-07T10:11:06.440Z,992.69
2022-09-07T10:12:07.409Z,992.55
2022-09-07T10:13:06.429Z,992.67
2022-09-07T10:14:06.420Z,992.68
2022-09-07T10:15:06.439Z,992.64
2022-09-07T10:16:06.555Z,992.62
2022-09-07T10:17:06.407Z,992.62
2022-09-07T10:18:06.386Z,992.61
2022-09-07T10:19:06.404Z,992.57
2022-09-07T10:20:06.428Z,992.56
2022-09-07T10:21:06.395Z,992.51
2022-09-07T10:22:06.360Z,992.54
2022-09-07T10:23:06.361Z,992.58
2022-09-07T10:24:06.357Z,992.52
2022-09-07T10:25:06.368Z,992.59
2022-09-07T10:26:06.334Z,992.49
2022-09-07T10:27:06.324Z,992.48
2022-09-07T10:28:06.319Z,992.53
2022-09-07T10:29:06.853Z,992.62
2022-09-07T10:30:07.329Z,992.60
2022-09-07T10:31:08.059Z,992.51
2022-09-07T10:32:06.281Z,992.55
2022-09-07T10:33:06.286Z,992.52
2022-09-07T10:35:08.287Z,992.48
2022-09-07T10:36:06.256Z,992.48
2022-09-07T10:37:06.242Z,992.46
2022-09-07T10:38:06.235Z,992.43
2022-09-07T10:39:06.238Z,992.41
2022-09-07T10:40:06.278Z,992.36
2022-09-07T10:41:06.249Z,992.39
2022-09-07T10:42:06.222Z,992.37
2022-09-07T10:43:22.077Z,992.27
2022-09-07T10:44:09.292Z,992.29
2022-09-07T10:45:06.217Z,992.35
2022-09-07T10:46:06.245Z,992.32
2022-09-07T10:47:06.262Z,992.24
2022-09-07T10:48:06.190Z,992.32
2022-09-07T10:49:06.165Z,992.35
2022-09-07T10:50:22.111Z,992.19
2022-09-07T10:51:14.082Z,992.21
2022-09-07T10:52:08.133Z,992.23
2022-09-07T10:53:23.494Z,992.17
2022-09-07T10:55:08.138Z,992.13
2022-09-07T10:56:06.116Z,992.12
2022-09-07T10:57:06.099Z,992.14
2022-09-07T10:58:06.136Z,992.04
2022-09-07T10:59:06.119Z,992.01
2022-09-07T11:00:09.656Z,991.95
2022-09-07T11:01:07.111Z,992.02
2022-09-07T11:02:06.063Z,992.05
2022-09-07T11:04:08.047Z,991.97
2022-09-07T11:05:06.068Z,991.98
2022-09-07T11:06:06.028Z,991.97
2022-09-07T11:07:06.029Z,992.01
2022-09-07T11:08:06.019Z,991.97
2022-09-07T11:09:21.424Z,992.00
2022-09-07T11:10:08.044Z,991.91
2022-09-07T11:11:05.997Z,991.89
2022-09-07T11:12:06.004Z,991.91
2022-09-07T11:13:05.983Z,991.91
2022-09-07T11:14:12.839Z,991.86
2022-09-07T11:15:08.005Z,991.92
2022-09-07T11:16:06.339Z,991.88
2022-09-07T11:17:06.090Z,991.94
2022-09-07T11:18:05.944Z,991.91
2022-09-07T11:19:36.965Z,991.92
2022-09-07T11:20:07.979Z,991.86
2022-09-07T11:21:05.975Z,991.87
2022-09-07T11:22:06.030Z,991.88
2022-09-07T11:23:05.908Z,991.91
2022-09-07T11:24:05.890Z,991.89
2022-09-07T11:26:07.908Z,991.82
2022-09-07T11:27:05.866Z,991.84
2022-09-07T11:28:05.856Z,991.82
2022-09-07T11:30:07.913Z,991.88
2022-09-07T11:31:05.914Z,991.83
2022-09-07T11:32:05.829Z,991.85
2022-09-07T11:33:05.821Z,991.86
2022-09-07T11:35:07.804Z,991.78
2022-09-07T11:36:09.860Z,991.78
2022-09-07T11:37:07.806Z,991.79
2022-09-07T11:38:05.808Z,991.75
2022-09-07T11:39:05.775Z,991.72
2022-09-07T11:40:05.842Z,991.71
2022-09-07T11:41:05.783Z,991.75
2022-09-07T11:43:11.313Z,991.66
2022-09-07T11:44:05.759Z,991.66
2022-09-07T11:45:05.730Z,991.64
2022-09-07T11:46:05.778Z,991.68
2022-09-07T11:47:05.719Z,991.68
2022-09-07T11:48:05.701Z,991.62
2022-09-07T11:49:05.701Z,991.68
2022-09-07T11:50:05.704Z,991.72
2022-09-07T11:51:06.707Z,991.65
2022-09-07T11:52:05.769Z,991.65
2022-09-07T11:53:06.670Z,991.62
2022-09-07T11:54:05.663Z,991.63
2022-09-07T11:55:05.655Z,991.57
2022-09-07T11:56:05.675Z,991.51
2022-09-07T11:57:05.644Z,991.54
2022-09-07T11:58:05.637Z,991.57
2022-09-07T11:59:05.626Z,991.59
2022-09-07T12:00:05.721Z,991.64
2022-09-07T12:01:05.648Z,991.55
2022-09-07T12:02:05.654Z,991.54
2022-09-07T12:03:06.641Z,991.55
2022-09-07T12:04:05.685Z,991.54
2022-09-07T12:05:05.579Z,991.54
2022-09-07T12:06:05.596Z,991.51
2022-09-07T12:07:05.575Z,991.46
2022-09-07T12:08:05.561Z,991.56
2022-09-07T12:09:05.558Z,991.60
2022-09-07T12:10:05.621Z,991.58
2022-09-07T12:11:05.573Z,991.61
2022-09-07T12:12:05.531Z,991.58
2022-09-07T12:13:05.525Z,991.56
2022-09-07T12:14:05.524Z,991.56
2022-09-07T12:15:05.509Z,991.56
2022-09-07T12:16:05.680Z,991.49
2022-09-07T12:17:05.491Z,991.49
2022-09-07T12:18:05.506Z,991.50
2022-09-07T12:19:05.485Z,991.46
2022-09-07T12:20:05.473Z,991.44
2022-09-07T12:21:05.494Z,991.45
2022-09-07T12:22:05.490Z,991.42
2022-09-07T12:23:05.847Z,991.39
2022-09-07T12:24:05.443Z,991.36
2022-09-07T12:25:05.437Z,991.35
2022-09-07T12:26:05.423Z,991.44
2022-09-07T12:27:05.446Z,991.39
2022-09-07T12:28:05.411Z,991.39
2022-09-07T12:29:05.414Z,991.47
2022-09-07T12:30:05.398Z,991.32
2022-09-07T12:31:05.428Z,991.39
2022-09-07T12:32:53.462Z,991.40
2022-09-07T12:33:07.444Z,991.37
2022-09-07T12:34:05.375Z,991.40
2022-09-07T12:35:05.357Z,991.45
2022-09-07T12:36:05.376Z,991.43
2022-09-07T12:37:06.800Z,991.47
2022-09-07T12:38:06.337Z,991.38
2022-09-07T12:39:05.324Z,991.45
2022-09-07T12:40:05.370Z,991.33
2022-09-07T12:41:05.337Z,991.37
2022-09-07T12:43:09.825Z,991.42
2022-09-07T12:44:06.290Z,991.45
2022-09-07T12:45:05.289Z,991.46
2022-09-07T12:46:05.355Z,991.45
2022-09-07T12:47:05.273Z,991.49
2022-09-07T12:48:05.262Z,991.50
2022-09-07T12:49:05.256Z,991.55
2022-09-07T12:50:05.251Z,991.54
2022-09-07T12:51:05.273Z,991.48
2022-09-07T12:52:14.905Z,991.53
2022-09-07T12:53:07.236Z,991.57
2022-09-07T12:54:05.231Z,991.40
2022-09-07T12:55:26.566Z,991.47
2022-09-07T12:56:22.507Z,991.43
2022-09-07T12:58:07.186Z,991.37
2022-09-07T12:59:05.181Z,991.38
2022-09-07T13:00:05.172Z,991.32
2022-09-07T13:01:05.600Z,991.40
2022-09-07T13:02:06.244Z,991.30
2022-09-07T13:03:05.366Z,991.27
2022-09-07T13:04:05.209Z,991.23
2022-09-07T13:05:05.132Z,991.29
2022-09-07T13:06:05.129Z,991.27
2022-09-07T13:07:05.151Z,991.23
2022-09-07T13:08:09.081Z,991.26